sensor_id;sensor_type;location;lat;lon;timestamp;P1;durP1;ratioP1;P2;durP2;ratioP2
47349;SDS011;33088;51.982;5.872;2022-10-12T00:01:52;11.18;;;2.40;;
47349;SDS011;33088;51.982;5.872;2022-10-12T00:04:18;12.52;;;2.50;;
47349;SDS011;33088;51.982;5.872;2022-10-12T00:06:44;7.18;;;2.40;;
47349;SDS011;33088;51.982;5.872;2022-10-12T00:09:10;15.05;;;3.00;;
47349;SDS011;33088;51.982;5.872;2022-10-12T00:11:35;15.98;;;3.13;;
47349;SDS011;33088;51.982;5.872;2022-10-12T00:14:02;12.15;;;2.78;;
47349;SDS011;33088;51.982;5.872;2022-10-12T00:16:27;12.98;;;3.85;;
47349;SDS011;33088;51.982;5.872;2022-10-12T00:18:55;8.35;;;2.72;;
47349;SDS011;33088;51.982;5.872;2022-10-12T00:21:22;13.35;;;3.00;;
47349;SDS011;33088;51.982;5.872;2022-10-12T00:23:49;14.95;;;3.40;;
47349;SDS011;33088;51.982;5.872;2022-10-12T00:26:16;12.88;;;3.17;;
47349;SDS011;33088;51.982;5.872;2022-10-12T00:28:45;15.43;;;3.53;;
47349;SDS011;33088;51.982;5.872;2022-10-12T00:31:14;17.52;;;3.97;;
47349;SDS011;33088;51.982;5.872;2022-10-12T00:33:42;9.77;;;2.67;;
47349;SDS011;33088;51.982;5.872;2022-10-12T00:38:43;16.83;;;2.90;;
47349;SDS011;33088;51.982;5.872;2022-10-12T00:41:09;14.20;;;3.97;;
47349;SDS011;33088;51.982;5.872;2022-10-12T00:43:37;14.18;;;3.40;;
47349;SDS011;33088;51.982;5.872;2022-10-12T00:46:09;10.55;;;3.40;;
47349;SDS011;33088;51.982;5.872;2022-10-12T00:48:37;16.70;;;4.88;;
47349;SDS011;33088;51.982;5.872;2022-10-12T00:51:03;12.02;;;2.80;;
47349;SDS011;33088;51.982;5.872;2022-10-12T00:53:41;10.95;;;3.35;;
47349;SDS011;33088;51.982;5.872;2022-10-12T00:56:13;13.65;;;4.65;;
47349;SDS011;33088;51.982;5.872;2022-10-12T00:58:44;11.93;;;2.72;;
47349;SDS011;33088;51.982;5.872;2022-10-12T01:01:12;20.20;;;4.50;;
47349;SDS011;33088;51.982;5.872;2022-10-12T01:03:38;14.73;;;3.33;;
47349;SDS011;33088;51.982;5.872;2022-10-12T01:06:05;13.90;;;3.15;;
47349;SDS011;33088;51.982;5.872;2022-10-12T01:08:31;10.52;;;3.08;;
47349;SDS011;33088;51.982;5.872;2022-10-12T01:10:58;12.13;;;3.70;;
47349;SDS011;33088;51.982;5.872;2022-10-12T01:13:24;14.95;;;3.30;;
47349;SDS011;33088;51.982;5.872;2022-10-12T01:18:40;19.67;;;4.57;;
47349;SDS011;33088;51.982;5.872;2022-10-12T01:21:26;14.40;;;3.80;;
47349;SDS011;33088;51.982;5.872;2022-10-12T01:32:24;11.73;;;3.38;;
47349;SDS011;33088;51.982;5.872;2022-10-12T01:35:04;11.90;;;3.50;;
47349;SDS011;33088;51.982;5.872;2022-10-12T01:40:21;12.10;;;5.28;;
47349;SDS011;33088;51.982;5.872;2022-10-12T01:42:53;7.30;;;3.78;;
47349;SDS011;33088;51.982;5.872;2022-10-12T01:45:19;10.63;;;3.10;;
47349;SDS011;33088;51.982;5.872;2022-10-12T01:47:46;12.55;;;4.68;;
47349;SDS011;33088;51.982;5.872;2022-10-12T01:50:16;10.90;;;3.33;;
47349;SDS011;33088;51.982;5.872;2022-10-12T02:06:21;13.82;;;3.83;;
47349;SDS011;33088;51.982;5.872;2022-10-12T02:08:54;11.43;;;3.58;;
47349;SDS011;33088;51.982;5.872;2022-10-12T02:11:25;14.95;;;3.53;;
47349;SDS011;33088;51.982;5.872;2022-10-12T02:14:03;13.95;;;3.95;;
47349;SDS011;33088;51.982;5.872;2022-10-12T02:16:35;15.98;;;3.90;;
47349;SDS011;33088;51.982;5.872;2022-10-12T02:19:05;19.83;;;3.40;;
47349;SDS011;33088;51.982;5.872;2022-10-12T02:21:35;13.30;;;4.30;;
47349;SDS011;33088;51.982;5.872;2022-10-12T02:24:03;11.57;;;3.90;;
47349;SDS011;33088;51.982;5.872;2022-10-12T02:26:33;10.15;;;3.47;;
47349;SDS011;33088;51.982;5.872;2022-10-12T02:29:02;10.00;;;3.55;;
47349;SDS011;33088;51.982;5.872;2022-10-12T02:36:48;12.38;;;3.65;;
47349;SDS011;33088;51.982;5.872;2022-10-12T02:39:27;7.70;;;3.38;;
47349;SDS011;33088;51.982;5.872;2022-10-12T02:41:58;16.70;;;3.58;;
47349;SDS011;33088;51.982;5.872;2022-10-12T02:44:32;13.13;;;4.38;;
47349;SDS011;33088;51.982;5.872;2022-10-12T02:47:01;12.48;;;4.03;;
47349;SDS011;33088;51.982;5.872;2022-10-12T02:49:30;19.60;;;3.90;;
47349;SDS011;33088;51.982;5.872;2022-10-12T02:51:58;12.80;;;3.38;;
47349;SDS011;33088;51.982;5.872;2022-10-12T02:54:24;11.18;;;4.03;;
47349;SDS011;33088;51.982;5.872;2022-10-12T02:56:50;10.70;;;3.45;;
47349;SDS011;33088;51.982;5.872;2022-10-12T02:59:16;14.30;;;4.35;;
47349;SDS011;33088;51.982;5.872;2022-10-12T03:01:43;12.25;;;3.50;;
47349;SDS011;33088;51.982;5.872;2022-10-12T03:04:09;18.98;;;4.60;;
47349;SDS011;33088;51.982;5.872;2022-10-12T03:06:35;9.20;;;3.90;;
47349;SDS011;33088;51.982;5.872;2022-10-12T03:09:00;8.35;;;4.13;;
47349;SDS011;33088;51.982;5.872;2022-10-12T03:11:26;6.75;;;3.05;;
47349;SDS011;33088;51.982;5.872;2022-10-12T03:13:55;8.35;;;3.50;;
47349;SDS011;33088;51.982;5.872;2022-10-12T03:16:22;11.60;;;3.95;;
47349;SDS011;33088;51.982;5.872;2022-10-12T03:18:48;13.15;;;4.07;;
47349;SDS011;33088;51.982;5.872;2022-10-12T03:21:14;14.63;;;4.40;;
47349;SDS011;33088;51.982;5.872;2022-10-12T03:23:40;12.23;;;3.20;;
47349;SDS011;33088;51.982;5.872;2022-10-12T03:26:06;13.13;;;3.33;;
47349;SDS011;33088;51.982;5.872;2022-10-12T03:28:32;11.95;;;4.00;;
47349;SDS011;33088;51.982;5.872;2022-10-12T03:30:58;18.92;;;4.32;;
47349;SDS011;33088;51.982;5.872;2022-10-12T03:33:24;15.40;;;4.43;;
47349;SDS011;33088;51.982;5.872;2022-10-12T03:35:50;12.60;;;3.95;;
47349;SDS011;33088;51.982;5.872;2022-10-12T03:38:17;16.25;;;3.88;;
47349;SDS011;33088;51.982;5.872;2022-10-12T03:40:43;15.60;;;3.83;;
47349;SDS011;33088;51.982;5.872;2022-10-12T03:43:09;10.88;;;3.40;;
47349;SDS011;33088;51.982;5.872;2022-10-12T03:45:35;14.35;;;3.50;;
47349;SDS011;33088;51.982;5.872;2022-10-12T03:48:02;9.02;;;3.33;;
47349;SDS011;33088;51.982;5.872;2022-10-12T03:50:28;8.52;;;3.13;;
47349;SDS011;33088;51.982;5.872;2022-10-12T03:52:54;8.32;;;3.97;;
47349;SDS011;33088;51.982;5.872;2022-10-12T03:55:20;13.73;;;3.83;;
47349;SDS011;33088;51.982;5.872;2022-10-12T03:57:47;10.80;;;3.40;;
47349;SDS011;33088;51.982;5.872;2022-10-12T04:00:13;16.27;;;3.85;;
47349;SDS011;33088;51.982;5.872;2022-10-12T04:02:39;17.73;;;3.60;;
47349;SDS011;33088;51.982;5.872;2022-10-12T04:05:05;13.48;;;3.80;;
47349;SDS011;33088;51.982;5.872;2022-10-12T04:07:32;17.77;;;5.15;;
47349;SDS011;33088;51.982;5.872;2022-10-12T04:09:57;16.88;;;4.82;;
47349;SDS011;33088;51.982;5.872;2022-10-12T04:12:23;18.83;;;6.03;;
47349;SDS011;33088;51.982;5.872;2022-10-12T04:14:51;13.73;;;5.45;;
47349;SDS011;33088;51.982;5.872;2022-10-12T04:17:17;20.25;;;6.90;;
47349;SDS011;33088;51.982;5.872;2022-10-12T04:19:43;21.27;;;6.57;;
47349;SDS011;33088;51.982;5.872;2022-10-12T04:22:09;18.02;;;6.85;;
47349;SDS011;33088;51.982;5.872;2022-10-12T04:24:34;26.50;;;8.55;;
47349;SDS011;33088;51.982;5.872;2022-10-12T04:27:00;22.58;;;9.40;;
47349;SDS011;33088;51.982;5.872;2022-10-12T04:29:26;19.33;;;7.68;;
47349;SDS011;33088;51.982;5.872;2022-10-12T04:31:51;27.73;;;9.93;;
47349;SDS011;33088;51.982;5.872;2022-10-12T04:34:18;18.50;;;9.75;;
47349;SDS011;33088;51.982;5.872;2022-10-12T04:36:44;15.93;;;8.10;;
47349;SDS011;33088;51.982;5.872;2022-10-12T04:39:10;25.20;;;10.38;;
47349;SDS011;33088;51.982;5.872;2022-10-12T04:41:35;27.45;;;10.73;;
47349;SDS011;33088;51.982;5.872;2022-10-12T04:44:01;22.45;;;10.30;;
47349;SDS011;33088;51.982;5.872;2022-10-12T04:46:27;18.92;;;8.90;;
47349;SDS011;33088;51.982;5.872;2022-10-12T04:48:52;22.73;;;9.13;;
47349;SDS011;33088;51.982;5.872;2022-10-12T04:51:18;18.77;;;8.57;;
47349;SDS011;33088;51.982;5.872;2022-10-12T04:53:44;22.17;;;8.18;;
47349;SDS011;33088;51.982;5.872;2022-10-12T04:56:09;19.58;;;8.70;;
47349;SDS011;33088;51.982;5.872;2022-10-12T04:58:35;20.95;;;9.80;;
47349;SDS011;33088;51.982;5.872;2022-10-12T05:01:01;17.25;;;8.95;;
47349;SDS011;33088;51.982;5.872;2022-10-12T05:03:27;25.80;;;10.20;;
47349;SDS011;33088;51.982;5.872;2022-10-12T05:05:52;23.90;;;9.57;;
47349;SDS011;33088;51.982;5.872;2022-10-12T05:08:18;22.42;;;9.43;;
47349;SDS011;33088;51.982;5.872;2022-10-12T05:10:44;29.77;;;9.65;;
47349;SDS011;33088;51.982;5.872;2022-10-12T05:13:11;28.42;;;9.13;;
47349;SDS011;33088;51.982;5.872;2022-10-12T05:15:37;25.77;;;10.00;;
47349;SDS011;33088;51.982;5.872;2022-10-12T05:18:03;17.13;;;9.50;;
47349;SDS011;33088;51.982;5.872;2022-10-12T05:20:29;25.52;;;11.00;;
47349;SDS011;33088;51.982;5.872;2022-10-12T05:22:58;25.40;;;10.35;;
47349;SDS011;33088;51.982;5.872;2022-10-12T05:25:23;29.17;;;10.38;;
47349;SDS011;33088;51.982;5.872;2022-10-12T05:27:49;25.70;;;9.32;;
47349;SDS011;33088;51.982;5.872;2022-10-12T05:30:15;23.38;;;9.93;;
47349;SDS011;33088;51.982;5.872;2022-10-12T05:32:41;19.35;;;9.20;;
47349;SDS011;33088;51.982;5.872;2022-10-12T05:35:09;21.13;;;8.68;;
47349;SDS011;33088;51.982;5.872;2022-10-12T05:37:35;21.30;;;8.52;;
47349;SDS011;33088;51.982;5.872;2022-10-12T05:40:01;16.35;;;8.43;;
47349;SDS011;33088;51.982;5.872;2022-10-12T05:42:27;16.60;;;9.25;;
47349;SDS011;33088;51.982;5.872;2022-10-12T05:44:53;27.10;;;9.05;;
47349;SDS011;33088;51.982;5.872;2022-10-12T05:47:19;18.92;;;9.48;;
47349;SDS011;33088;51.982;5.872;2022-10-12T05:49:44;14.75;;;8.80;;
47349;SDS011;33088;51.982;5.872;2022-10-12T05:52:10;20.80;;;9.77;;
47349;SDS011;33088;51.982;5.872;2022-10-12T05:54:35;19.38;;;10.07;;
47349;SDS011;33088;51.982;5.872;2022-10-12T05:57:01;20.15;;;9.40;;
47349;SDS011;33088;51.982;5.872;2022-10-12T05:59:27;26.23;;;10.32;;
47349;SDS011;33088;51.982;5.872;2022-10-12T06:01:52;23.35;;;11.48;;
47349;SDS011;33088;51.982;5.872;2022-10-12T06:04:18;26.65;;;9.52;;
47349;SDS011;33088;51.982;5.872;2022-10-12T06:06:44;21.38;;;9.65;;
47349;SDS011;33088;51.982;5.872;2022-10-12T06:09:09;23.48;;;10.27;;
47349;SDS011;33088;51.982;5.872;2022-10-12T06:11:36;26.27;;;12.30;;
47349;SDS011;33088;51.982;5.872;2022-10-12T06:14:02;23.45;;;12.15;;
47349;SDS011;33088;51.982;5.872;2022-10-12T06:16:28;22.63;;;10.88;;
47349;SDS011;33088;51.982;5.872;2022-10-12T06:18:54;20.05;;;11.48;;
47349;SDS011;33088;51.982;5.872;2022-10-12T06:21:20;23.75;;;13.50;;
47349;SDS011;33088;51.982;5.872;2022-10-12T06:23:45;27.95;;;10.65;;
47349;SDS011;33088;51.982;5.872;2022-10-12T06:26:11;32.22;;;12.93;;
47349;SDS011;33088;51.982;5.872;2022-10-12T06:28:37;21.73;;;11.32;;
47349;SDS011;33088;51.982;5.872;2022-10-12T06:31:02;26.08;;;12.27;;
47349;SDS011;33088;51.982;5.872;2022-10-12T06:33:28;24.80;;;13.18;;
47349;SDS011;33088;51.982;5.872;2022-10-12T06:35:54;26.83;;;12.52;;
47349;SDS011;33088;51.982;5.872;2022-10-12T06:38:20;30.10;;;11.90;;
47349;SDS011;33088;51.982;5.872;2022-10-12T06:40:46;19.65;;;11.90;;
47349;SDS011;33088;51.982;5.872;2022-10-12T06:43:12;26.23;;;12.85;;
47349;SDS011;33088;51.982;5.872;2022-10-12T06:45:38;26.55;;;12.38;;
47349;SDS011;33088;51.982;5.872;2022-10-12T06:48:05;27.60;;;13.07;;
47349;SDS011;33088;51.982;5.872;2022-10-12T06:50:31;32.58;;;13.40;;
47349;SDS011;33088;51.982;5.872;2022-10-12T06:52:57;23.33;;;12.60;;
47349;SDS011;33088;51.982;5.872;2022-10-12T06:55:23;28.00;;;12.95;;
47349;SDS011;33088;51.982;5.872;2022-10-12T06:57:49;24.88;;;12.90;;
47349;SDS011;33088;51.982;5.872;2022-10-12T07:00:15;21.85;;;12.63;;
47349;SDS011;33088;51.982;5.872;2022-10-12T07:02:41;27.13;;;14.52;;
47349;SDS011;33088;51.982;5.872;2022-10-12T07:05:07;31.67;;;15.27;;
47349;SDS011;33088;51.982;5.872;2022-10-12T07:07:33;30.13;;;14.27;;
47349;SDS011;33088;51.982;5.872;2022-10-12T07:10:00;23.40;;;13.57;;
47349;SDS011;33088;51.982;5.872;2022-10-12T07:12:28;23.45;;;14.82;;
47349;SDS011;33088;51.982;5.872;2022-10-12T07:14:53;26.60;;;13.77;;
47349;SDS011;33088;51.982;5.872;2022-10-12T07:17:19;31.73;;;15.05;;
47349;SDS011;33088;51.982;5.872;2022-10-12T07:19:45;37.33;;;16.27;;
47349;SDS011;33088;51.982;5.872;2022-10-12T07:22:11;36.80;;;15.88;;
47349;SDS011;33088;51.982;5.872;2022-10-12T07:24:37;38.13;;;16.13;;
47349;SDS011;33088;51.982;5.872;2022-10-12T07:27:03;27.48;;;14.95;;
47349;SDS011;33088;51.982;5.872;2022-10-12T07:29:34;32.92;;;15.65;;
47349;SDS011;33088;51.982;5.872;2022-10-12T07:32:00;29.50;;;14.75;;
47349;SDS011;33088;51.982;5.872;2022-10-12T07:34:27;31.90;;;14.30;;
47349;SDS011;33088;51.982;5.872;2022-10-12T07:36:52;24.25;;;13.55;;
47349;SDS011;33088;51.982;5.872;2022-10-12T07:39:19;30.50;;;15.07;;
47349;SDS011;33088;51.982;5.872;2022-10-12T07:41:46;29.58;;;15.43;;
47349;SDS011;33088;51.982;5.872;2022-10-12T07:44:12;29.25;;;13.30;;
47349;SDS011;33088;51.982;5.872;2022-10-12T07:46:38;30.75;;;14.68;;
47349;SDS011;33088;51.982;5.872;2022-10-12T07:49:03;28.08;;;13.88;;
47349;SDS011;33088;51.982;5.872;2022-10-12T07:51:29;32.05;;;13.75;;
47349;SDS011;33088;51.982;5.872;2022-10-12T07:53:55;26.23;;;14.10;;
47349;SDS011;33088;51.982;5.872;2022-10-12T07:56:21;18.23;;;12.43;;
47349;SDS011;33088;51.982;5.872;2022-10-12T07:58:47;24.27;;;13.13;;
47349;SDS011;33088;51.982;5.872;2022-10-12T08:01:14;21.17;;;12.85;;
47349;SDS011;33088;51.982;5.872;2022-10-12T08:03:41;28.85;;;13.02;;
47349;SDS011;33088;51.982;5.872;2022-10-12T08:06:10;30.42;;;15.60;;
47349;SDS011;33088;51.982;5.872;2022-10-12T08:08:37;30.55;;;16.13;;
47349;SDS011;33088;51.982;5.872;2022-10-12T08:11:04;33.58;;;17.50;;
47349;SDS011;33088;51.982;5.872;2022-10-12T08:13:31;30.17;;;18.02;;
47349;SDS011;33088;51.982;5.872;2022-10-12T08:15:57;34.40;;;18.13;;
47349;SDS011;33088;51.982;5.872;2022-10-12T08:18:24;30.45;;;17.90;;
47349;SDS011;33088;51.982;5.872;2022-10-12T08:20:50;31.20;;;16.98;;
47349;SDS011;33088;51.982;5.872;2022-10-12T08:23:16;30.13;;;16.60;;
47349;SDS011;33088;51.982;5.872;2022-10-12T08:25:47;28.30;;;15.23;;
47349;SDS011;33088;51.982;5.872;2022-10-12T08:28:19;28.92;;;15.50;;
47349;SDS011;33088;51.982;5.872;2022-10-12T08:30:45;31.75;;;14.40;;
47349;SDS011;33088;51.982;5.872;2022-10-12T08:33:10;30.65;;;15.93;;
47349;SDS011;33088;51.982;5.872;2022-10-12T08:35:37;25.65;;;14.18;;
47349;SDS011;33088;51.982;5.872;2022-10-12T08:38:05;25.27;;;13.77;;
47349;SDS011;33088;51.982;5.872;2022-10-12T08:40:33;23.23;;;13.25;;
47349;SDS011;33088;51.982;5.872;2022-10-12T08:43:26;25.88;;;13.90;;
47349;SDS011;33088;51.982;5.872;2022-10-12T08:45:57;23.20;;;13.80;;
47349;SDS011;33088;51.982;5.872;2022-10-12T08:48:26;27.27;;;13.60;;
47349;SDS011;33088;51.982;5.872;2022-10-12T08:51:13;21.15;;;12.57;;
47349;SDS011;33088;51.982;5.872;2022-10-12T08:56:29;18.67;;;12.07;;
47349;SDS011;33088;51.982;5.872;2022-10-12T08:58:55;22.40;;;12.93;;
47349;SDS011;33088;51.982;5.872;2022-10-12T09:01:28;23.67;;;12.10;;
47349;SDS011;33088;51.982;5.872;2022-10-12T09:07:05;15.77;;;10.23;;
47349;SDS011;33088;51.982;5.872;2022-10-12T09:14:36;21.20;;;11.30;;
47349;SDS011;33088;51.982;5.872;2022-10-12T09:17:17;19.35;;;11.05;;
47349;SDS011;33088;51.982;5.872;2022-10-12T09:19:52;15.27;;;10.60;;
47349;SDS011;33088;51.982;5.872;2022-10-12T09:22:26;25.30;;;11.18;;
47349;SDS011;33088;51.982;5.872;2022-10-12T09:24:54;22.65;;;11.20;;
47349;SDS011;33088;51.982;5.872;2022-10-12T09:27:21;22.45;;;9.63;;
47349;SDS011;33088;51.982;5.872;2022-10-12T09:29:50;21.67;;;9.80;;
47349;SDS011;33088;51.982;5.872;2022-10-12T09:32:31;26.27;;;9.45;;
47349;SDS011;33088;51.982;5.872;2022-10-12T09:35:12;19.98;;;9.43;;
47349;SDS011;33088;51.982;5.872;2022-10-12T09:37:38;17.65;;;10.75;;
47349;SDS011;33088;51.982;5.872;2022-10-12T09:40:05;23.73;;;10.48;;
47349;SDS011;33088;51.982;5.872;2022-10-12T09:42:39;19.70;;;9.32;;
47349;SDS011;33088;51.982;5.872;2022-10-12T09:45:18;23.40;;;9.32;;
47349;SDS011;33088;51.982;5.872;2022-10-12T09:50:37;21.33;;;10.80;;
47349;SDS011;33088;51.982;5.872;2022-10-12T09:56:00;21.37;;;10.30;;
47349;SDS011;33088;51.982;5.872;2022-10-12T09:58:29;28.80;;;10.60;;
47349;SDS011;33088;51.982;5.872;2022-10-12T10:03:46;19.65;;;10.18;;
47349;SDS011;33088;51.982;5.872;2022-10-12T10:06:21;16.65;;;8.05;;
47349;SDS011;33088;51.982;5.872;2022-10-12T10:08:48;16.08;;;7.78;;
47349;SDS011;33088;51.982;5.872;2022-10-12T10:11:14;20.20;;;8.20;;
47349;SDS011;33088;51.982;5.872;2022-10-12T10:13:51;17.52;;;9.07;;
47349;SDS011;33088;51.982;5.872;2022-10-12T10:16:19;26.75;;;8.70;;
47349;SDS011;33088;51.982;5.872;2022-10-12T10:18:58;18.48;;;8.52;;
47349;SDS011;33088;51.982;5.872;2022-10-12T10:21:27;18.20;;;7.78;;
47349;SDS011;33088;51.982;5.872;2022-10-12T10:23:57;16.83;;;8.30;;
47349;SDS011;33088;51.982;5.872;2022-10-12T10:26:23;17.80;;;7.32;;
47349;SDS011;33088;51.982;5.872;2022-10-12T10:29:13;24.30;;;7.82;;
47349;SDS011;33088;51.982;5.872;2022-10-12T10:31:41;15.55;;;7.55;;
47349;SDS011;33088;51.982;5.872;2022-10-12T10:41:45;16.48;;;7.97;;
47349;SDS011;33088;51.982;5.872;2022-10-12T10:44:18;22.85;;;9.40;;
47349;SDS011;33088;51.982;5.872;2022-10-12T10:46:53;18.58;;;8.50;;
47349;SDS011;33088;51.982;5.872;2022-10-12T10:49:27;21.48;;;9.35;;
47349;SDS011;33088;51.982;5.872;2022-10-12T10:52:24;16.70;;;8.75;;
47349;SDS011;33088;51.982;5.872;2022-10-12T10:55:05;19.98;;;8.40;;
47349;SDS011;33088;51.982;5.872;2022-10-12T10:57:45;20.92;;;8.65;;
47349;SDS011;33088;51.982;5.872;2022-10-12T11:00:37;18.83;;;8.68;;
47349;SDS011;33088;51.982;5.872;2022-10-12T11:03:18;19.77;;;8.95;;
47349;SDS011;33088;51.982;5.872;2022-10-12T11:06:02;19.40;;;9.10;;
47349;SDS011;33088;51.982;5.872;2022-10-12T11:08:34;20.02;;;10.30;;
47349;SDS011;33088;51.982;5.872;2022-10-12T11:11:11;18.20;;;8.60;;
47349;SDS011;33088;51.982;5.872;2022-10-12T11:13:43;16.00;;;8.68;;
47349;SDS011;33088;51.982;5.872;2022-10-12T11:16:32;20.80;;;8.30;;
47349;SDS011;33088;51.982;5.872;2022-10-12T11:21:53;16.08;;;7.97;;
47349;SDS011;33088;51.982;5.872;2022-10-12T11:29:41;21.73;;;8.98;;
47349;SDS011;33088;51.982;5.872;2022-10-12T11:32:21;15.75;;;7.63;;
47349;SDS011;33088;51.982;5.872;2022-10-12T11:34:56;14.02;;;7.72;;
47349;SDS011;33088;51.982;5.872;2022-10-12T11:37:46;25.40;;;8.82;;
47349;SDS011;33088;51.982;5.872;2022-10-12T11:40:22;15.73;;;7.47;;
47349;SDS011;33088;51.982;5.872;2022-10-12T11:42:53;16.08;;;7.28;;
47349;SDS011;33088;51.982;5.872;2022-10-12T11:45:26;25.60;;;7.68;;
47349;SDS011;33088;51.982;5.872;2022-10-12T11:48:02;16.75;;;6.90;;
47349;SDS011;33088;51.982;5.872;2022-10-12T11:50:44;18.73;;;7.43;;
47349;SDS011;33088;51.982;5.872;2022-10-12T11:53:28;15.55;;;7.40;;
47349;SDS011;33088;51.982;5.872;2022-10-12T11:59:04;24.15;;;8.52;;
47349;SDS011;33088;51.982;5.872;2022-10-12T12:01:59;22.45;;;10.07;;
47349;SDS011;33088;51.982;5.872;2022-10-12T12:04:42;18.17;;;8.32;;
47349;SDS011;33088;51.982;5.872;2022-10-12T12:15:36;17.23;;;8.70;;
47349;SDS011;33088;51.982;5.872;2022-10-12T12:18:06;17.75;;;8.57;;
47349;SDS011;33088;51.982;5.872;2022-10-12T12:29:09;17.67;;;9.85;;
47349;SDS011;33088;51.982;5.872;2022-10-12T12:31:35;18.80;;;9.00;;
47349;SDS011;33088;51.982;5.872;2022-10-12T12:34:11;17.80;;;9.43;;
47349;SDS011;33088;51.982;5.872;2022-10-12T12:36:40;19.77;;;9.10;;
47349;SDS011;33088;51.982;5.872;2022-10-12T12:39:21;21.63;;;8.38;;
47349;SDS011;33088;51.982;5.872;2022-10-12T12:41:55;16.52;;;8.45;;
47349;SDS011;33088;51.982;5.872;2022-10-12T12:49:39;16.83;;;10.38;;
47349;SDS011;33088;51.982;5.872;2022-10-12T12:52:28;23.50;;;9.98;;
47349;SDS011;33088;51.982;5.872;2022-10-12T13:00:28;15.30;;;6.97;;
47349;SDS011;33088;51.982;5.872;2022-10-12T13:03:16;16.05;;;6.60;;
47349;SDS011;33088;51.982;5.872;2022-10-12T13:12:30;14.80;;;6.05;;
47349;SDS011;33088;51.982;5.872;2022-10-12T13:20:30;10.48;;;4.78;;
47349;SDS011;33088;51.982;5.872;2022-10-12T13:22:58;15.13;;;4.95;;
47349;SDS011;33088;51.982;5.872;2022-10-12T13:25:47;15.82;;;6.15;;
47349;SDS011;33088;51.982;5.872;2022-10-12T13:28:19;18.52;;;5.75;;
47349;SDS011;33088;51.982;5.872;2022-10-12T13:33:26;16.35;;;6.72;;
47349;SDS011;33088;51.982;5.872;2022-10-12T13:38:55;9.95;;;5.82;;
47349;SDS011;33088;51.982;5.872;2022-10-12T13:41:23;12.00;;;5.75;;
47349;SDS011;33088;51.982;5.872;2022-10-12T13:44:00;14.82;;;5.38;;
47349;SDS011;33088;51.982;5.872;2022-10-12T13:49:26;16.23;;;5.78;;
47349;SDS011;33088;51.982;5.872;2022-10-12T13:51:55;12.27;;;5.28;;
47349;SDS011;33088;51.982;5.872;2022-10-12T13:56:52;11.25;;;5.80;;
47349;SDS011;33088;51.982;5.872;2022-10-12T13:59:23;19.38;;;8.15;;
47349;SDS011;33088;51.982;5.872;2022-10-12T14:01:53;16.05;;;8.25;;
47349;SDS011;33088;51.982;5.872;2022-10-12T14:04:31;19.55;;;7.97;;
47349;SDS011;33088;51.982;5.872;2022-10-12T14:07:05;23.77;;;10.00;;
47349;SDS011;33088;51.982;5.872;2022-10-12T14:09:47;21.10;;;9.27;;
47349;SDS011;33088;51.982;5.872;2022-10-12T14:12:20;18.52;;;8.73;;
47349;SDS011;33088;51.982;5.872;2022-10-12T14:14:46;15.13;;;7.25;;
47349;SDS011;33088;51.982;5.872;2022-10-12T14:17:16;23.60;;;7.90;;
47349;SDS011;33088;51.982;5.872;2022-10-12T14:19:47;15.05;;;6.82;;
47349;SDS011;33088;51.982;5.872;2022-10-12T14:22:23;19.80;;;8.23;;
47349;SDS011;33088;51.982;5.872;2022-10-12T14:25:07;18.58;;;7.45;;
47349;SDS011;33088;51.982;5.872;2022-10-12T14:27:36;13.52;;;7.03;;
47349;SDS011;33088;51.982;5.872;2022-10-12T14:30:05;15.55;;;7.45;;
47349;SDS011;33088;51.982;5.872;2022-10-12T14:32:44;17.75;;;9.30;;
47349;SDS011;33088;51.982;5.872;2022-10-12T14:37:43;13.70;;;8.45;;
47349;SDS011;33088;51.982;5.872;2022-10-12T14:42:57;22.05;;;10.00;;
47349;SDS011;33088;51.982;5.872;2022-10-12T14:45:24;17.58;;;9.32;;
47349;SDS011;33088;51.982;5.872;2022-10-12T14:47:50;20.45;;;9.70;;
47349;SDS011;33088;51.982;5.872;2022-10-12T14:50:17;17.70;;;8.85;;
47349;SDS011;33088;51.982;5.872;2022-10-12T14:52:45;15.27;;;8.80;;
47349;SDS011;33088;51.982;5.872;2022-10-12T14:55:26;16.50;;;8.65;;
47349;SDS011;33088;51.982;5.872;2022-10-12T14:57:53;14.25;;;7.97;;
47349;SDS011;33088;51.982;5.872;2022-10-12T15:00:37;17.58;;;9.52;;
47349;SDS011;33088;51.982;5.872;2022-10-12T15:03:03;17.13;;;8.98;;
47349;SDS011;33088;51.982;5.872;2022-10-12T15:05:29;20.23;;;9.02;;
47349;SDS011;33088;51.982;5.872;2022-10-12T15:07:56;22.38;;;9.55;;
47349;SDS011;33088;51.982;5.872;2022-10-12T15:10:23;19.13;;;8.77;;
47349;SDS011;33088;51.982;5.872;2022-10-12T15:12:50;18.10;;;10.45;;
47349;SDS011;33088;51.982;5.872;2022-10-12T15:18:03;23.83;;;9.57;;
47349;SDS011;33088;51.982;5.872;2022-10-12T15:20:30;26.85;;;9.80;;
47349;SDS011;33088;51.982;5.872;2022-10-12T15:22:59;16.48;;;8.70;;
47349;SDS011;33088;51.982;5.872;2022-10-12T15:28:25;16.50;;;7.85;;
47349;SDS011;33088;51.982;5.872;2022-10-12T15:30:55;14.30;;;6.82;;
47349;SDS011;33088;51.982;5.872;2022-10-12T15:33:22;17.48;;;7.03;;
47349;SDS011;33088;51.982;5.872;2022-10-12T15:35:48;19.13;;;7.38;;
47349;SDS011;33088;51.982;5.872;2022-10-12T15:38:14;14.70;;;7.45;;
47349;SDS011;33088;51.982;5.872;2022-10-12T15:40:40;14.93;;;7.18;;
47349;SDS011;33088;51.982;5.872;2022-10-12T15:43:08;15.48;;;7.20;;
47349;SDS011;33088;51.982;5.872;2022-10-12T15:45:35;15.05;;;7.88;;
47349;SDS011;33088;51.982;5.872;2022-10-12T15:48:03;17.50;;;6.85;;
47349;SDS011;33088;51.982;5.872;2022-10-12T15:50:40;10.90;;;7.20;;
47349;SDS011;33088;51.982;5.872;2022-10-12T15:53:09;13.32;;;6.50;;
47349;SDS011;33088;51.982;5.872;2022-10-12T15:55:39;18.23;;;7.20;;
47349;SDS011;33088;51.982;5.872;2022-10-12T15:58:04;16.25;;;6.53;;
47349;SDS011;33088;51.982;5.872;2022-10-12T16:00:30;13.20;;;7.32;;
47349;SDS011;33088;51.982;5.872;2022-10-12T16:02:59;18.33;;;7.55;;
47349;SDS011;33088;51.982;5.872;2022-10-12T16:05:32;15.20;;;6.80;;
47349;SDS011;33088;51.982;5.872;2022-10-12T16:08:00;13.00;;;6.38;;
47349;SDS011;33088;51.982;5.872;2022-10-12T16:10:28;12.95;;;7.03;;
47349;SDS011;33088;51.982;5.872;2022-10-12T16:12:56;12.35;;;6.03;;
47349;SDS011;33088;51.982;5.872;2022-10-12T16:15:23;13.52;;;6.57;;
47349;SDS011;33088;51.982;5.872;2022-10-12T16:17:53;17.20;;;7.77;;
47349;SDS011;33088;51.982;5.872;2022-10-12T16:20:19;15.75;;;7.90;;
47349;SDS011;33088;51.982;5.872;2022-10-12T16:22:46;17.92;;;7.05;;
47349;SDS011;33088;51.982;5.872;2022-10-12T16:25:12;22.17;;;7.95;;
47349;SDS011;33088;51.982;5.872;2022-10-12T16:27:41;19.42;;;7.97;;
47349;SDS011;33088;51.982;5.872;2022-10-12T16:30:08;18.75;;;7.13;;
47349;SDS011;33088;51.982;5.872;2022-10-12T16:32:35;15.15;;;7.45;;
47349;SDS011;33088;51.982;5.872;2022-10-12T16:35:01;16.60;;;7.45;;
47349;SDS011;33088;51.982;5.872;2022-10-12T16:37:27;18.88;;;7.40;;
47349;SDS011;33088;51.982;5.872;2022-10-12T16:39:54;23.92;;;8.25;;
47349;SDS011;33088;51.982;5.872;2022-10-12T16:42:20;14.52;;;7.05;;
47349;SDS011;33088;51.982;5.872;2022-10-12T16:44:46;13.68;;;7.57;;
47349;SDS011;33088;51.982;5.872;2022-10-12T16:47:12;18.60;;;7.57;;
47349;SDS011;33088;51.982;5.872;2022-10-12T16:49:38;17.20;;;8.02;;
47349;SDS011;33088;51.982;5.872;2022-10-12T16:52:04;20.92;;;7.90;;
47349;SDS011;33088;51.982;5.872;2022-10-12T16:54:30;16.52;;;8.23;;
47349;SDS011;33088;51.982;5.872;2022-10-12T16:56:56;19.73;;;8.10;;
47349;SDS011;33088;51.982;5.872;2022-10-12T16:59:22;14.93;;;7.65;;